Portada
METAR-TAF:

METAR-TAF

Aeroports :

Mandalay, Myanmar

latitud: 21-59N, longitud: 096-06E, altitud: 74 m

Observació

L'informe es va fer fa 1 hora i 4 minuts, a les 11:30 UTC
Vent 6 kt del Oest/Nord-Oest
Temperatura 30°C
Humitat 38%
Pressió 1011 hPa
Visibilitat: 6000 m

METAR: VYMD 171130Z 30006KT 6000 NSC 30/14 Q1011 NOSIG

Hora: 19:04 (12:34 UTC)

Pronòstic

L'informe es va fer fa 1 hora i 34 minuts, a les 11:00 UTC
Pronòstic vàlid del 17 a les 12 UTC al 18 a les 12 UTC
Vent 3 kt del Sud
Visibilitat: 7000 m
Escasses núvols a una alçada de 2500 ft
Temporalment
l' 17 a les 12 UTC al 17 a les 18 UTC
Vent 7 kt del Oest
Visibilitat: 6000 m
Núvols disperses a una alçada de 2500 ft

TAF: VYMD 171100Z 1712/1812 18003KT 7000 FEW025 TEMPO 1712/1718 27007KT 6000 SCT025

Observacions i pronòstics meteorològics de més de 4000 aeroports (METAR i TAF).

Les estacions disponibles són els punts grocs i vermells al mapa.

Posi el ratolí al punt desitjat per veure el nom de l'estació.

Feu clic per veure les observacions i els pronòstics meteorològics.

Per canviar el mapa: feu clic els botons verds amb una creu de color negre per apropar; al botó verd amb un guió per allunyar la imatge; o en les fletxes verdes per a mapes adjacents.


METAR-TAF: